Touranou — SX7051 — position and weather

sailwx.info

Track history (hours):
 
Tides and Currents Weather Stations Pressure Air Temp Water Temp Dewpoint Dewpoint Depression Visibility Wind Speed Wind Dir Waves Ship Positions

Touranou

Last reported at 2018-Jun-17 13:44 UTC. Time now 2018-Jun-20 04:01 UTC.
Position N 37°04' E 025°06'.

Length 16 m.

Type: Sailing vessel. MMSI: 237172600.

Date/timePositionNaut miles runAvg speedWind from/ knotsBaromVisibWave heightAir tempDewpointWater temp
2018-Jun-17 13:44N 37°04' E 025°06'1 3.3
2018-Jun-17 13:30N 37°04' E 025°05'0 0.0
2018-Jun-17 13:00N 37°04' E 025°05'0 0.0
2018-Jun-17 12:30N 37°04' E 025°05'0 0.0
2018-Jun-17 12:00N 37°04' E 025°05'0 0.0
2018-Jun-17 11:30N 37°04' E 025°05'0 0.0
2018-Jun-17 11:00N 37°04' E 025°05'0 0.0
2018-Jun-17 10:30N 37°04' E 025°05'0 0.0
2018-Jun-17 09:57N 37°04' E 025°05'0 0.0
2018-Jun-17 09:30N 37°04' E 025°05'1 1.9
2018-Jun-17 09:00N 37°05' E 025°06'2 3.0
2018-Jun-17 08:30N 37°03' E 025°06'1 1.1
2018-Jun-17 07:52N 37°02' E 025°05'0 0.0
2018-Jun-17 07:28N 37°02' E 025°05'0 0.0
2018-Jun-17 06:58N 37°02' E 025°05'0 0.0
2018-Jun-17 06:28N 37°02' E 025°05'0 0.0
2018-Jun-17 05:52N 37°02' E 025°05'0 0.0
2018-Jun-17 05:28N 37°02' E 025°05'0 0.0
2018-Jun-17 04:55N 37°02' E 025°05'0 0.0
2018-Jun-17 04:25N 37°02' E 025°05'0 0.0
2018-Jun-17 03:58N 37°02' E 025°05'0 0.0
2018-Jun-17 03:25N 37°02' E 025°05'0 0.0
2018-Jun-17 02:58N 37°02' E 025°05'0 0.0
2018-Jun-17 02:28N 37°02' E 025°05'0 0.0
2018-Jun-17 01:58N 37°02' E 025°05'0 0.0
2018-Jun-17 01:28N 37°02' E 025°05'0 0.0
2018-Jun-17 00:58N 37°02' E 025°05'0 0.0
2018-Jun-17 00:28N 37°02' E 025°05'0 0.0
2018-Jun-16 23:58N 37°02' E 025°05'0 0.0
2018-Jun-16 23:28N 37°02' E 025°05'0 0.0
2018-Jun-16 22:58N 37°02' E 025°05'0 0.0
2018-Jun-16 22:28N 37°02' E 025°05'0 0.0
2018-Jun-16 21:58N 37°02' E 025°05'0 0.0
2018-Jun-16 21:28N 37°02' E 025°05'0 0.0
2018-Jun-16 20:58N 37°02' E 025°05'0 0.0
2018-Jun-16 20:25N 37°02' E 025°05'0 0.0
2018-Jun-16 19:58N 37°02' E 025°05'0 0.0
2018-Jun-16 19:28N 37°02' E 025°05'0 0.0
2018-Jun-16 18:58N 37°02' E 025°05'0 0.0
2018-Jun-16 18:28N 37°02' E 025°05'0 0.0
2018-Jun-16 17:58N 37°02' E 025°05'0 0.0
2018-Jun-16 17:28N 37°02' E 025°05'0 0.0
2018-Jun-16 16:58N 37°02' E 025°05'0 0.0
2018-Jun-16 16:28N 37°02' E 025°05'0 0.0
2018-Jun-16 16:00N 37°02' E 025°05'  
2018-Jun-11 13:58N 36°59' E 025°22'3 7.0
2018-Jun-11 13:30N 37°02' E 025°19'3 6.0
2018-Jun-11 12:58N 37°05' E 025°20'2 5.2
2018-Jun-11 12:31N 37°06' E 025°22'0 0.1
2018-Jun-11 11:55N 37°06' E 025°22'0 0.0
2018-Jun-11 11:28N 37°06' E 025°22'0 0.0
2018-Jun-11 10:58N 37°06' E 025°22'0 0.0
2018-Jun-11 10:28N 37°06' E 025°22'0 0.0
2018-Jun-11 09:55N 37°06' E 025°22'0 0.0
2018-Jun-11 09:28N 37°06' E 025°22'0 0.0
2018-Jun-11 08:59N 37°06' E 025°22'0 0.0
2018-Jun-11 08:29N 37°06' E 025°22'0 0.0
2018-Jun-11 07:59N 37°06' E 025°22'0 0.0
2018-Jun-11 07:29N 37°06' E 025°22'0 0.0
2018-Jun-11 06:59N 37°06' E 025°22'0 0.0
2018-Jun-11 06:26N 37°06' E 025°22'0 0.0
2018-Jun-11 05:59N 37°06' E 025°22'0 0.0
2018-Jun-11 05:29N 37°06' E 025°22'0 0.0
2018-Jun-11 04:59N 37°06' E 025°22'0 0.0
2018-Jun-11 04:29N 37°06' E 025°22'0 0.0
2018-Jun-11 03:59N 37°06' E 025°22'0 0.0
2018-Jun-11 03:29N 37°06' E 025°22'0 0.0
2018-Jun-11 02:59N 37°06' E 025°22'0 0.0
2018-Jun-11 02:26N 37°06' E 025°22'0 0.0
2018-Jun-11 01:59N 37°06' E 025°22'0 0.0
2018-Jun-11 01:29N 37°06' E 025°22'0 0.0
2018-Jun-11 00:59N 37°06' E 025°22'0 0.0
2018-Jun-11 00:29N 37°06' E 025°22'0 0.0
2018-Jun-10 23:59N 37°06' E 025°22'0 0.0
2018-Jun-10 23:29N 37°06' E 025°22'0 0.0
2018-Jun-10 22:59N 37°06' E 025°22'0 0.0
2018-Jun-10 22:29N 37°06' E 025°22'0 0.0
2018-Jun-10 21:56N 37°06' E 025°22'0 0.0
2018-Jun-10 21:26N 37°06' E 025°22'0 0.0
2018-Jun-10 20:59N 37°06' E 025°22'0 0.0
2018-Jun-10 20:29N 37°06' E 025°22'0 0.0
2018-Jun-10 19:59N 37°06' E 025°22'0 0.0
2018-Jun-10 19:29N 37°06' E 025°22'0 0.0
2018-Jun-10 18:56N 37°06' E 025°22'0 0.0
2018-Jun-10 18:29N 37°06' E 025°22'0 0.0
2018-Jun-10 17:59N 37°06' E 025°22'0 0.0
2018-Jun-10 17:29N 37°06' E 025°22'0 0.0
2018-Jun-10 16:56N 37°06' E 025°22'0 0.0
2018-Jun-10 16:29N 37°06' E 025°22'0 0.0
2018-Jun-10 15:59N 37°06' E 025°22'0 0.0
2018-Jun-10 15:29N 37°06' E 025°22'0 0.0
2018-Jun-10 14:59N 37°06' E 025°22'2 1.8
2018-Jun-10 13:59N 37°07' E 025°21'3 7.3
2018-Jun-10 13:30N 37°10' E 025°17'4 7.2
2018-Jun-10 13:00N 37°11' E 025°13'13 7.0
2018-Jun-10 11:05N 37°18' E 024°59'1 7.5
2018-Jun-10 11:00N 37°19' E 024°58'4 7.4
2018-Jun-10 10:30N 37°21' E 024°54'  
Track history (hours):
 
Tides and Currents Weather Stations Pressure Air Temp Water Temp Dewpoint Dewpoint Depression Visibility Wind Speed Wind Dir Waves Ship Positions

Touranou

Last reported at 2018-Jun-17 13:44 UTC. Time now 2018-Jun-20 04:01 UTC.
Position N 37°04' E 025°06'.

Length 16 m.

Type: Sailing vessel. MMSI: 237172600.

Date/timePositionNaut miles runAvg speedWind from/ knotsBaromVisibWave heightAir tempDewpointWater temp
2018-Jun-17 13:44N 37°04' E 025°06'1 3.3
2018-Jun-17 13:30N 37°04' E 025°05'0 0.0
2018-Jun-17 13:00N 37°04' E 025°05'0 0.0
2018-Jun-17 12:30N 37°04' E 025°05'0 0.0
2018-Jun-17 12:00N 37°04' E 025°05'0 0.0
2018-Jun-17 11:30N 37°04' E 025°05'0 0.0
2018-Jun-17 11:00N 37°04' E 025°05'0 0.0
2018-Jun-17 10:30N 37°04' E 025°05'0 0.0
2018-Jun-17 09:57N 37°04' E 025°05'0 0.0
2018-Jun-17 09:30N 37°04' E 025°05'1 1.9
2018-Jun-17 09:00N 37°05' E 025°06'2 3.0
2018-Jun-17 08:30N 37°03' E 025°06'1 1.1
2018-Jun-17 07:52N 37°02' E 025°05'0 0.0
2018-Jun-17 07:28N 37°02' E 025°05'0 0.0
2018-Jun-17 06:58N 37°02' E 025°05'0 0.0
2018-Jun-17 06:28N 37°02' E 025°05'0 0.0
2018-Jun-17 05:52N 37°02' E 025°05'0 0.0
2018-Jun-17 05:28N 37°02' E 025°05'0 0.0
2018-Jun-17 04:55N 37°02' E 025°05'0 0.0
2018-Jun-17 04:25N 37°02' E 025°05'0 0.0
2018-Jun-17 03:58N 37°02' E 025°05'0 0.0
2018-Jun-17 03:25N 37°02' E 025°05'0 0.0
2018-Jun-17 02:58N 37°02' E 025°05'0 0.0
2018-Jun-17 02:28N 37°02' E 025°05'0 0.0
2018-Jun-17 01:58N 37°02' E 025°05'0 0.0
2018-Jun-17 01:28N 37°02' E 025°05'0 0.0
2018-Jun-17 00:58N 37°02' E 025°05'0 0.0
2018-Jun-17 00:28N 37°02' E 025°05'0 0.0
2018-Jun-16 23:58N 37°02' E 025°05'0 0.0
2018-Jun-16 23:28N 37°02' E 025°05'0 0.0
2018-Jun-16 22:58N 37°02' E 025°05'0 0.0
2018-Jun-16 22:28N 37°02' E 025°05'0 0.0
2018-Jun-16 21:58N 37°02' E 025°05'0 0.0
2018-Jun-16 21:28N 37°02' E 025°05'0 0.0
2018-Jun-16 20:58N 37°02' E 025°05'0 0.0
2018-Jun-16 20:25N 37°02' E 025°05'0 0.0
2018-Jun-16 19:58N 37°02' E 025°05'0 0.0
2018-Jun-16 19:28N 37°02' E 025°05'0 0.0
2018-Jun-16 18:58N 37°02' E 025°05'0 0.0
2018-Jun-16 18:28N 37°02' E 025°05'0 0.0
2018-Jun-16 17:58N 37°02' E 025°05'0 0.0
2018-Jun-16 17:28N 37°02' E 025°05'0 0.0
2018-Jun-16 16:58N 37°02' E 025°05'0 0.0
2018-Jun-16 16:28N 37°02' E 025°05'0 0.0
2018-Jun-16 16:00N 37°02' E 025°05'  
2018-Jun-11 13:58N 36°59' E 025°22'3 7.0
2018-Jun-11 13:30N 37°02' E 025°19'3 6.0
2018-Jun-11 12:58N 37°05' E 025°20'2 5.2
2018-Jun-11 12:31N 37°06' E 025°22'0 0.1
2018-Jun-11 11:55N 37°06' E 025°22'0 0.0
2018-Jun-11 11:28N 37°06' E 025°22'0 0.0
2018-Jun-11 10:58N 37°06' E 025°22'0 0.0
2018-Jun-11 10:28N 37°06' E 025°22'0 0.0
2018-Jun-11 09:55N 37°06' E 025°22'0 0.0
2018-Jun-11 09:28N 37°06' E 025°22'0 0.0
2018-Jun-11 08:59N 37°06' E 025°22'0 0.0
2018-Jun-11 08:29N 37°06' E 025°22'0 0.0
2018-Jun-11 07:59N 37°06' E 025°22'0 0.0
2018-Jun-11 07:29N 37°06' E 025°22'0 0.0
2018-Jun-11 06:59N 37°06' E 025°22'0 0.0
2018-Jun-11 06:26N 37°06' E 025°22'0 0.0
2018-Jun-11 05:59N 37°06' E 025°22'0 0.0
2018-Jun-11 05:29N 37°06' E 025°22'0 0.0
2018-Jun-11 04:59N 37°06' E 025°22'0 0.0
2018-Jun-11 04:29N 37°06' E 025°22'0 0.0
2018-Jun-11 03:59N 37°06' E 025°22'0 0.0
2018-Jun-11 03:29N 37°06' E 025°22'0 0.0
2018-Jun-11 02:59N 37°06' E 025°22'0 0.0
2018-Jun-11 02:26N 37°06' E 025°22'0 0.0
2018-Jun-11 01:59N 37°06' E 025°22'0 0.0
2018-Jun-11 01:29N 37°06' E 025°22'0 0.0
2018-Jun-11 00:59N 37°06' E 025°22'0 0.0
2018-Jun-11 00:29N 37°06' E 025°22'0 0.0
2018-Jun-10 23:59N 37°06' E 025°22'0 0.0
2018-Jun-10 23:29N 37°06' E 025°22'0 0.0
2018-Jun-10 22:59N 37°06' E 025°22'0 0.0
2018-Jun-10 22:29N 37°06' E 025°22'0 0.0
2018-Jun-10 21:56N 37°06' E 025°22'0 0.0
2018-Jun-10 21:26N 37°06' E 025°22'0 0.0
2018-Jun-10 20:59N 37°06' E 025°22'0 0.0
2018-Jun-10 20:29N 37°06' E 025°22'0 0.0
2018-Jun-10 19:59N 37°06' E 025°22'0 0.0
2018-Jun-10 19:29N 37°06' E 025°22'0 0.0
2018-Jun-10 18:56N 37°06' E 025°22'0 0.0
2018-Jun-10 18:29N 37°06' E 025°22'0 0.0
2018-Jun-10 17:59N 37°06' E 025°22'0 0.0
2018-Jun-10 17:29N 37°06' E 025°22'0 0.0
2018-Jun-10 16:56N 37°06' E 025°22'0 0.0
2018-Jun-10 16:29N 37°06' E 025°22'0 0.0
2018-Jun-10 15:59N 37°06' E 025°22'0 0.0
2018-Jun-10 15:29N 37°06' E 025°22'0 0.0
2018-Jun-10 14:59N 37°06' E 025°22'2 1.8
2018-Jun-10 13:59N 37°07' E 025°21'3 7.3
2018-Jun-10 13:30N 37°10' E 025°17'4 7.2
2018-Jun-10 13:00N 37°11' E 025°13'13 7.0
2018-Jun-10 11:05N 37°18' E 024°59'1 7.5
2018-Jun-10 11:00N 37°19' E 024°58'4 7.4
2018-Jun-10 10:30N 37°21' E 024°54'  

Dump ship's entire track history